METAR Data
IDs: Format: Raw Decoded Include TAF

Data at: 0114 UTC 06 Dec 2019

METAR for:KHEF (Manassas Rgnl, VA, US)
Text:KHEF 060056Z 00000KT 10SM CLR M01/M04 A3013 RMK AO2 SLP209 T10111039 FZRANO
Temperature: -1.1°C ( 30°F)
Dewpoint: -3.9°C ( 25°F) [RH = 81%]
Pressure (altimeter):30.13 inches Hg (1020.4 mb) [Sea level pressure: 1020.9 mb]
Winds:calm
Visibility:10 or more sm (16+ km)
Ceiling:at least 12,000 feet AGL
Clouds:sky clear below 12,000 feet AGL